Time;durP1;ratioP1;P1;durP2;ratioP2;P2;SDS_P1;SDS_P2;PMS_P1;PMS_P2;Temp;Humidity;BMP_temperature;BMP_pressure;BME280_temperature;BME280_humidity;BME280_pressure;Samples;Min_cycle;Max_cycle;Signal;HPM_P1;HPM_P2
2022/01/21 00:01:40;;;;;;;8.93;1.58;;;;;;;0.84;100.00;103265.19;5072794;28;20670;-47
2022/01/21 00:04:10;;;;;;;9.50;1.67;;;;;;;0.86;100.00;103277.31;5073099;28;20037;-45
2022/01/21 00:06:39;;;;;;;13.23;2.10;;;;;;;0.82;100.00;103264.31;5072948;28;20044;-59
2022/01/21 00:09:07;;;;;;;12.18;2.08;;;;;;;0.80;100.00;103273.78;5072891;28;20041;-59
2022/01/21 00:11:39;;;;;;;9.25;2.03;;;;;;;0.80;100.00;103263.41;5072823;28;20102;-57
2022/01/21 00:14:08;;;;;;;12.40;1.97;;;;;;;0.81;100.00;103274.66;5072513;28;20513;-55
2022/01/21 00:16:39;;;;;;;11.80;1.95;;;;;;;0.81;100.00;103269.47;5072733;28;20495;-57
2022/01/21 00:19:11;;;;;;;8.80;1.83;;;;;;;0.81;100.00;103264.31;5071391;28;20072;-48
2022/01/21 00:30:12;;;;;;;10.30;1.60;;;;;;;0.73;100.00;103284.91;5072452;28;20049;-57
2022/01/21 00:32:44;;;;;;;10.35;1.55;;;;;;;0.65;100.00;103273.56;5072491;28;20048;-46
2022/01/21 00:35:13;;;;;;;13.07;1.95;;;;;;;0.67;100.00;103274.47;5072237;28;20040;-48
2022/01/21 00:37:42;;;;;;;12.63;1.83;;;;;;;0.66;100.00;103270.13;5068544;28;20097;-44
2022/01/21 00:40:15;;;;;;;9.95;1.50;;;;;;;0.66;100.00;103275.31;5069563;28;20041;-57
2022/01/21 00:42:53;;;;;;;7.25;1.42;;;;;;;0.69;100.00;103274.47;5072519;28;20049;-57
2022/01/21 00:45:22;;;;;;;4.88;1.17;;;;;;;0.64;100.00;103272.69;5072331;28;20502;-57
2022/01/21 00:47:51;;;;;;;7.32;1.70;;;;;;;0.62;100.00;103278.69;5072421;28;20052;-46
2022/01/21 00:50:19;;;;;;;11.55;2.22;;;;;;;0.61;100.00;103269.19;5071949;28;20052;-56
2022/01/21 00:52:48;;;;;;;5.88;1.60;;;;;;;0.61;100.00;103274.34;5072082;28;20090;-44
2022/01/21 00:55:16;;;;;;;10.77;1.85;;;;;;;0.60;100.00;103265.72;5071733;28;20040;-43
2022/01/21 00:57:44;;;;;;;9.43;1.55;;;;;;;0.60;100.00;103280.38;5071979;28;20056;-57
2022/01/21 01:00:13;;;;;;;12.70;2.13;;;;;;;0.64;100.00;103277.88;5072018;28;20045;-55
2022/01/21 01:02:42;;;;;;;9.07;1.92;;;;;;;0.65;100.00;103274.41;5071822;28;20052;-47
2022/01/21 01:05:13;;;;;;;8.50;1.45;;;;;;;0.62;100.00;103268.34;5071721;28;20049;-57
2022/01/21 01:07:41;;;;;;;7.22;1.58;;;;;;;0.63;100.00;103275.25;5071814;28;20050;-56
2022/01/21 01:10:17;;;;;;;9.52;1.45;;;;;;;0.57;100.00;103277.75;5070509;28;20394;-49
2022/01/21 01:12:57;;;;;;;7.00;1.42;;;;;;;0.55;100.00;103267.38;5071741;28;20052;-47
2022/01/21 01:20:58;;;;;;;8.80;1.50;;;;;;;0.54;100.00;103282.88;5071715;28;20059;-57
2022/01/21 01:23:37;;;;;;;9.88;1.63;;;;;;;0.50;100.00;103275.06;5071936;28;20136;-56
2022/01/21 01:28:51;;;;;;;11.85;1.90;;;;;;;0.48;100.00;103268.13;5071576;28;20368;-57
2022/01/21 01:31:19;;;;;;;13.43;1.90;;;;;;;0.46;100.00;103275.88;5071677;28;20050;-45
2022/01/21 01:33:47;;;;;;;7.82;1.67;;;;;;;0.46;100.00;103267.22;5071873;28;20041;-45
2022/01/21 01:36:17;;;;;;;19.73;3.22;;;;;;;0.49;100.00;103264.66;5072041;28;20479;-45
2022/01/21 01:39:01;;;;;;;15.40;2.42;;;;;;;0.44;100.00;103271.53;5071895;28;20056;-44
2022/01/21 01:41:35;;;;;;;11.20;2.55;;;;;;;0.40;100.00;103273.19;5071823;28;20037;-45
2022/01/21 01:49:38;;;;;;;10.95;3.08;;;;;;;0.44;100.00;103271.53;5071379;28;20048;-49
2022/01/21 01:52:10;;;;;;;9.07;2.30;;;;;;;0.43;100.00;103268.03;5071697;28;20061;-57
2022/01/21 01:54:43;;;;;;;15.83;2.47;;;;;;;0.44;100.00;103271.53;5071599;28;20052;-57
2022/01/21 01:57:11;;;;;;;9.75;1.83;;;;;;;0.45;100.00;103279.31;5071041;28;20048;-56
2022/01/21 01:59:40;;;;;;;11.98;2.25;;;;;;;0.41;100.00;103266.25;5071502;28;20434;-57
2022/01/21 02:02:12;;;;;;;13.68;2.53;;;;;;;0.42;100.00;103278.38;5071675;28;20045;-57
2022/01/21 02:04:41;;;;;;;14.60;2.05;;;;;;;0.45;100.00;103270.66;5071324;28;20091;-46
2022/01/21 02:07:11;;;;;;;10.82;2.08;;;;;;;0.48;100.00;103268.13;5074034;28;20033;-49
2022/01/21 02:09:40;;;;;;;14.55;3.17;;;;;;;0.53;100.00;103263.00;5075014;28;20513;-47
2022/01/21 02:12:09;;;;;;;16.17;2.88;;;;;;;0.52;100.00;103264.75;5075183;28;20437;-48
2022/01/21 02:14:46;;;;;;;9.07;2.13;;;;;;;0.53;100.00;103263.00;5074968;28;20044;-56
2022/01/21 02:21:27;;;;;;;11.27;1.88;;;;;;;0.52;100.00;103262.16;5075052;28;20059;-44
2022/01/21 02:22:54;;;;;;;8.55;1.98;;;;;;;0.57;100.00;103269.97;5074938;28;20098;-57
2022/01/21 02:25:22;;;;;;;13.35;2.28;;;;;;;0.55;100.00;103271.69;5075033;28;20052;-57
2022/01/21 02:27:52;;;;;;;12.30;2.40;;;;;;;0.56;100.00;103263.94;5074885;28;20044;-49
2022/01/21 02:30:24;;;;;;;13.20;2.20;;;;;;;0.57;100.00;103259.63;5074837;28;20063;-48
2022/01/21 02:32:54;;;;;;;9.25;1.70;;;;;;;0.57;100.00;103265.66;5074851;28;20056;-46
2022/01/21 02:35:23;;;;;;;6.82;1.77;;;;;;;0.57;100.00;103267.38;5074746;28;20067;-55
2022/01/21 02:37:54;;;;;;;12.05;1.83;;;;;;;0.57;100.00;103269.97;5074573;28;20114;-56
2022/01/21 02:40:23;;;;;;;14.02;2.25;;;;;;;0.57;100.00;103269.97;5074470;28;20044;-44
2022/01/21 02:42:51;;;;;;;9.40;1.88;;;;;;;0.54;100.00;103265.63;5074731;28;20197;-49
2022/01/21 02:45:19;;;;;;;23.40;2.42;;;;;;;0.56;100.00;103278.59;5074535;28;20048;-56
2022/01/21 02:47:47;;;;;;;8.63;1.45;;;;;;;0.53;100.00;103284.59;5074277;28;20044;-56
2022/01/21 02:50:16;;;;;;;11.85;1.75;;;;;;;0.49;100.00;103277.63;5106750;28;20056;-47
2022/01/21 02:52:56;;;;;;;8.88;2.20;;;;;;;0.45;100.00;103279.31;5074143;28;20418;-57
2022/01/21 02:55:26;;;;;;;11.13;1.80;;;;;;;0.48;100.00;103276.75;5074401;28;20051;-49
2022/01/21 02:57:54;;;;;;;13.13;1.65;;;;;;;0.44;100.00;103282.72;5074185;28;20056;-57
2022/01/21 03:00:22;;;;;;;8.73;1.38;;;;;;;0.43;100.00;103278.38;5074315;28;20040;-56
2022/01/21 03:02:51;;;;;;;9.77;1.45;;;;;;;0.39;100.00;103276.59;5074179;28;20105;-46
2022/01/21 03:05:19;;;;;;;6.75;1.75;;;;;;;0.39;100.00;103274.00;5074179;28;20045;-49
2022/01/21 03:07:49;;;;;;;10.90;1.70;;;;;;;0.38;100.00;103285.22;5073990;28;20044;-45
2022/01/21 03:10:17;;;;;;;10.52;1.95;;;;;;;0.27;100.00;103281.56;5073938;28;20102;-44
2022/01/21 03:12:46;;;;;;;12.27;1.98;;;;;;;0.28;100.00;103279.00;5073594;28;20129;-49
2022/01/21 03:15:15;;;;;;;9.48;1.65;;;;;;;0.26;100.00;103290.19;5072101;28;20048;-43
2022/01/21 03:17:43;;;;;;;12.88;1.92;;;;;;;0.21;100.00;103281.50;5073402;28;20407;-43
2022/01/21 03:20:12;;;;;;;10.65;1.95;;;;;;;0.18;100.00;103284.91;5073923;28;20491;-57
2022/01/21 03:22:40;;;;;;;11.65;1.50;;;;;;;0.20;100.00;103290.09;5073724;28;20453;-57
2022/01/21 03:25:10;;;;;;;7.75;1.58;;;;;;;0.17;100.00;103293.50;5073760;28;20509;-46
2022/01/21 03:27:38;;;;;;;5.78;1.38;;;;;;;0.22;100.00;103293.56;5073517;28;20518;-46
2022/01/21 03:30:11;;;;;;;13.13;2.00;;;;;;;0.15;100.00;103293.47;5073446;28;20477;-56
2022/01/21 03:32:42;;;;;;;8.18;1.38;;;;;;;0.17;100.00;103298.69;5073477;28;20395;-56
2022/01/21 03:35:11;;;;;;;7.72;1.50;;;;;;;0.18;100.00;103295.25;5072035;28;20036;-56
2022/01/21 03:37:39;;;;;;;14.80;2.45;;;;;;;0.18;100.00;103297.84;5073300;28;20044;-44
2022/01/21 03:40:08;;;;;;;7.32;1.38;;;;;;;0.12;100.00;103306.38;5073550;28;20438;-57
2022/01/21 03:42:36;;;;;;;7.60;1.95;;;;;;;0.16;100.00;103294.34;5073370;28;20049;-55
2022/01/21 03:45:07;;;;;;;11.07;1.80;;;;;;;0.13;100.00;103299.47;5073415;28;20049;-57
2022/01/21 03:47:35;;;;;;;9.13;1.80;;;;;;;0.07;100.00;103297.63;5073399;28;20044;-45
2022/01/21 03:50:21;;;;;;;7.20;1.40;;;;;;;0.07;100.00;103289.00;5073031;28;20036;-56
2022/01/21 03:52:49;;;;;;;6.43;1.23;;;;;;;0.08;100.00;103283.88;5073255;28;20048;-47
2022/01/21 03:55:17;;;;;;;14.27;2.42;;;;;;;-0.04;100.00;103286.19;5072809;28;20045;-56
2022/01/21 03:57:45;;;;;;;9.43;2.35;;;;;;;0.00;100.00;103288.03;5072310;28;20404;-57
2022/01/21 04:00:19;;;;;;;10.75;1.73;;;;;;;-0.05;100.00;103284.47;5072601;28;20114;-57
2022/01/21 04:02:48;;;;;;;7.85;2.22;;;;;;;-0.02;100.00;103289.72;5072385;28;20056;-49
2022/01/21 04:05:16;;;;;;;14.30;1.75;;;;;;;-0.07;100.00;103301.69;5072559;28;20086;-47
2022/01/21 04:07:44;;;;;;;10.93;2.72;;;;;;;-0.11;100.00;103299.88;5072356;28;20048;-46
2022/01/21 04:10:12;;;;;;;8.02;1.75;;;;;;;-0.14;100.00;103284.31;5072282;28;20072;-56
2022/01/21 04:12:41;;;;;;;6.32;1.65;;;;;;;-0.14;100.00;103292.06;5072431;28;20053;-57
2022/01/21 04:15:10;;;;;;;7.20;1.42;;;;;;;-0.10;100.00;103280.94;5072343;28;20058;-55
2022/01/21 04:17:39;;;;;;;11.13;1.52;;;;;;;-0.14;100.00;103285.16;5072591;28;20501;-56
2022/01/21 04:20:10;;;;;;;6.13;1.45;;;;;;;-0.19;100.00;103277.34;5072301;28;20052;-57
2022/01/21 04:22:38;;;;;;;9.18;1.88;;;;;;;-0.12;100.00;103278.31;5074823;28;20055;-56
2022/01/21 04:25:07;;;;;;;10.23;2.03;;;;;;;-0.20;100.00;103274.72;5092769;28;20498;-57
2022/01/21 04:27:36;;;;;;;10.32;1.73;;;;;;;-0.17;100.00;103282.53;5092537;28;20494;-56
2022/01/21 04:30:06;;;;;;;6.55;1.40;;;;;;;-0.24;100.00;103284.13;5092078;28;20048;-45
2022/01/21 04:32:35;;;;;;;16.77;2.00;;;;;;;-0.23;100.00;103280.72;5092846;28;20048;-50
2022/01/21 04:35:05;;;;;;;7.30;1.40;;;;;;;-0.27;100.00;103280.59;5092400;28;20067;-45
2022/01/21 04:37:33;;;;;;;7.75;2.00;;;;;;;-0.33;100.00;103275.31;5092808;28;20512;-46
2022/01/21 04:40:07;;;;;;;9.88;1.88;;;;;;;-0.30;100.00;103273.69;5092835;28;20054;-46
2022/01/21 04:48:07;;;;;;;6.25;2.13;;;;;;;-0.41;100.00;103281.22;5092583;28;20040;-48
2022/01/21 04:50:42;;;;;;;16.17;2.58;;;;;;;-0.39;100.00;103284.69;5092208;28;20081;-47
2022/01/21 04:53:10;;;;;;;7.13;1.40;;;;;;;-0.35;100.00;103281.34;5092549;28;20052;-48
2022/01/21 04:55:38;;;;;;;8.10;1.42;;;;;;;-0.38;100.00;103280.41;5092308;28;20056;-57
2022/01/21 04:58:06;;;;;;;12.15;2.60;;;;;;;-0.38;100.00;103288.19;5092451;28;20044;-49
2022/01/21 05:00:35;;;;;;;6.45;1.23;;;;;;;-0.38;100.00;103285.59;5092288;28;20043;-56
2022/01/21 05:03:03;;;;;;;14.85;2.63;;;;;;;-0.38;100.00;103285.59;5092286;28;20117;-57
2022/01/21 05:05:31;;;;;;;10.27;1.75;;;;;;;-0.38;100.00;103286.44;5092555;28;20495;-57
2022/01/21 05:08:05;;;;;;;13.70;1.77;;;;;;;-0.41;100.00;103285.50;5092155;28;20060;-57
2022/01/21 05:10:35;;;;;;;8.35;1.52;;;;;;;-0.40;100.00;103295.03;5092233;28;20044;-49
2022/01/21 05:13:05;;;;;;;11.90;1.63;;;;;;;-0.46;100.00;103292.28;5092104;28;20067;-57
2022/01/21 05:15:47;;;;;;;14.65;2.05;;;;;;;-0.40;100.00;103298.47;5092213;28;20040;-57
2022/01/21 05:18:15;;;;;;;11.53;1.87;;;;;;;-0.39;100.00;103289.88;5092245;28;20052;-47
2022/01/21 05:20:43;;;;;;;8.40;1.50;;;;;;;-0.39;100.00;103289.00;5092088;28;20036;-48
2022/01/21 05:23:12;;;;;;;9.15;1.40;;;;;;;-0.38;100.00;103285.59;5092162;28;20055;-57
2022/01/21 05:25:41;;;;;;;7.93;1.35;;;;;;;-0.34;100.00;103287.41;5091840;28;20056;-57
2022/01/21 05:28:09;;;;;;;17.58;2.30;;;;;;;-0.29;100.00;103290.06;5091961;28;20048;-56
2022/01/21 05:30:37;;;;;;;8.98;1.95;;;;;;;-0.27;100.00;103293.53;5091547;28;20525;-47
2022/01/21 05:33:05;;;;;;;6.88;1.83;;;;;;;-0.26;100.00;103297.88;5091674;28;20384;-45
2022/01/21 05:35:33;;;;;;;11.05;1.52;;;;;;;-0.28;100.00;103294.41;5092120;28;20040;-44
2022/01/21 05:38:01;;;;;;;7.97;1.27;;;;;;;-0.26;100.00;103291.00;5091952;28;20051;-57
2022/01/21 05:40:31;;;;;;;7.55;1.83;;;;;;;-0.24;100.00;103286.72;5093713;28;20048;-57
2022/01/21 05:43:00;;;;;;;11.02;1.95;;;;;;;-0.22;100.00;103281.56;5095892;28;20127;-58
2022/01/21 05:48:14;;;;;;;5.85;1.02;;;;;;;-0.20;100.00;103280.75;5095999;28;20052;-46
2022/01/21 05:50:42;;;;;;;12.18;1.83;;;;;;;-0.23;100.00;103285.88;5095533;28;20058;-44
2022/01/21 05:53:11;;;;;;;12.95;1.88;;;;;;;-0.16;100.00;103289.47;5095647;28;20036;-44
2022/01/21 05:55:42;;;;;;;6.90;1.30;;;;;;;-0.18;100.00;103294.59;5095745;28;20086;-45
2022/01/21 05:58:13;;;;;;;15.35;2.00;;;;;;;-0.18;100.00;103301.47;5094300;28;20094;-45
2022/01/21 06:00:44;;;;;;;12.27;1.88;;;;;;;-0.14;100.00;103299.84;5094884;28;20543;-45
2022/01/21 06:03:13;;;;;;;13.43;1.77;;;;;;;-0.18;100.00;103299.78;5095439;28;20044;-45
2022/01/21 06:05:41;;;;;;;7.82;2.35;;;;;;;-0.17;100.00;103305.81;5095460;28;20102;-50
2022/01/21 06:08:09;;;;;;;5.38;1.83;;;;;;;-0.20;100.00;103310.94;5095503;28;20056;-47
2022/01/21 06:10:37;;;;;;;17.20;1.98;;;;;;;-0.22;100.00;103317.78;5094006;28;20060;-46
2022/01/21 06:13:06;;;;;;;9.05;1.42;;;;;;;-0.24;100.00;103309.13;5095497;28;20044;-48
2022/01/21 06:15:35;;;;;;;5.95;1.40;;;;;;;-0.24;100.00;103304.81;5095384;28;20102;-47
2022/01/21 06:18:03;;;;;;;8.38;1.50;;;;;;;-0.25;100.00;103303.06;5095222;28;20464;-48
2022/01/21 06:20:31;;;;;;;8.05;1.55;;;;;;;-0.23;100.00;103316.91;5095275;28;20052;-49
2022/01/21 06:22:59;;;;;;;10.15;1.70;;;;;;;-0.23;100.00;103321.19;5095195;28;20380;-45
2022/01/21 06:25:27;;;;;;;14.27;1.63;;;;;;;-0.25;100.00;103316.00;5095308;28;20048;-49
2022/01/21 06:27:55;;;;;;;17.40;2.20;;;;;;;-0.22;100.00;103315.19;5095121;28;20059;-48
2022/01/21 06:30:25;;;;;;;10.02;2.15;;;;;;;-0.19;100.00;103317.88;5094957;28;20495;-47
2022/01/21 06:32:53;;;;;;;5.43;1.38;;;;;;;-0.14;100.00;103330.88;5094962;28;20054;-45
2022/01/21 06:35:21;;;;;;;14.00;1.65;;;;;;;-0.15;100.00;103329.13;5094769;28;20428;-48
2022/01/21 06:37:49;;;;;;;7.65;1.95;;;;;;;-0.18;100.00;103340.28;5094691;28;20097;-47
2022/01/21 06:40:20;;;;;;;8.20;1.50;;;;;;;-0.11;100.00;103341.28;5095036;28;20051;-45
2022/01/21 06:42:48;;;;;;;7.13;1.73;;;;;;;-0.13;100.00;103338.66;5093643;28;20059;-45
2022/01/21 06:45:16;;;;;;;7.68;1.27;;;;;;;-0.12;100.00;103334.34;5094971;28;20126;-48
2022/01/21 06:47:46;;;;;;;7.72;1.55;;;;;;;-0.11;100.00;103337.00;5094707;28;20475;-47
2022/01/21 06:50:14;;;;;;;11.73;1.38;;;;;;;-0.09;100.00;103329.25;5094295;28;20052;-47
2022/01/21 06:52:42;;;;;;;11.52;1.35;;;;;;;-0.05;100.00;103333.66;5093490;28;20146;-45
2022/01/21 06:55:11;;;;;;;11.07;1.45;;;;;;;-0.02;100.00;103338.88;5094133;28;20097;-45
2022/01/21 06:57:39;;;;;;;7.20;1.48;;;;;;;0.03;100.00;103338.94;5094350;28;20472;-46
2022/01/21 07:00:10;;;;;;;6.43;1.20;;;;;;;0.06;100.00;103350.22;5094405;28;20048;-49
2022/01/21 07:02:39;;;;;;;10.18;1.80;;;;;;;0.17;100.00;103353.03;5094369;28;20048;-45
2022/01/21 07:05:08;;;;;;;7.85;1.58;;;;;;;0.21;100.00;103359.16;5094069;28;20077;-47
2022/01/21 07:07:37;;;;;;;6.07;1.40;;;;;;;0.20;100.00;103360.84;5094341;28;20047;-46
2022/01/21 07:10:07;;;;;;;7.13;1.40;;;;;;;0.24;100.00;103369.53;5092980;28;20162;-47
2022/01/21 07:12:36;;;;;;;8.55;1.67;;;;;;;0.27;100.00;103377.34;5094085;28;20101;-49
2022/01/21 07:15:05;;;;;;;7.45;1.38;;;;;;;0.30;100.00;103364.47;5094392;28;20044;-49
2022/01/21 07:17:33;;;;;;;5.72;1.52;;;;;;;0.32;100.00;103370.56;5093969;28;20105;-45
2022/01/21 07:20:01;;;;;;;9.27;1.98;;;;;;;0.33;100.00;103373.16;5094030;28;20052;-47
2022/01/21 07:22:31;;;;;;;13.27;2.25;;;;;;;0.39;100.00;103379.31;5093977;28;20590;-48
2022/01/21 07:24:59;;;;;;;12.80;2.30;;;;;;;0.37;100.00;103376.69;5093908;28;20109;-44
2022/01/21 07:27:27;;;;;;;13.07;2.10;;;;;;;0.41;100.00;103378.50;5092511;28;20052;-46
2022/01/21 07:29:55;;;;;;;11.43;2.42;;;;;;;0.42;100.00;103372.44;5093660;28;20615;-47
2022/01/21 07:32:23;;;;;;;5.75;1.40;;;;;;;0.42;100.00;103364.69;5093275;28;20036;-47
2022/01/21 07:34:51;;;;;;;9.45;1.58;;;;;;;0.47;100.00;103372.56;5093401;28;20060;-48
2022/01/21 07:37:19;;;;;;;9.75;2.03;;;;;;;0.47;100.00;103365.63;5093656;28;20052;-49
2022/01/21 07:39:49;;;;;;;9.98;1.60;;;;;;;0.49;100.00;103369.16;5093691;28;20052;-50
2022/01/21 07:42:17;;;;;;;10.50;2.00;;;;;;;0.44;100.00;103362.16;5093461;28;20056;-47
2022/01/21 07:44:47;;;;;;;7.97;1.80;;;;;;;0.47;100.00;103367.38;5093488;28;20109;-48
2022/01/21 07:47:15;;;;;;;8.82;1.52;;;;;;;0.45;100.00;103363.88;5092131;28;20047;-46
2022/01/21 07:49:43;;;;;;;9.35;1.63;;;;;;;0.44;100.00;103354.38;5093303;28;20055;-45
2022/01/21 07:52:11;;;;;;;8.63;1.80;;;;;;;0.44;100.00;103352.66;5093207;28;20147;-48
2022/01/21 07:54:40;;;;;;;10.65;2.25;;;;;;;0.44;100.00;103347.47;5093515;28;20063;-49
2022/01/21 07:57:10;;;;;;;11.07;2.35;;;;;;;0.44;100.00;103350.06;5093302;28;20047;-50
2022/01/21 07:59:38;;;;;;;14.13;1.80;;;;;;;0.50;100.00;103357.94;5093348;28;20055;-48
2022/01/21 08:02:07;;;;;;;6.57;1.50;;;;;;;0.57;100.00;103364.06;5091967;28;20077;-50
2022/01/21 08:04:35;;;;;;;4.53;1.40;;;;;;;0.54;100.00;103364.03;5092309;28;20052;-47
2022/01/21 08:07:03;;;;;;;9.98;1.80;;;;;;;0.57;100.00;103363.22;5093108;28;20525;-44
2022/01/21 08:09:31;;;;;;;6.53;1.63;;;;;;;0.58;100.00;103360.66;5092756;28;20040;-46
2022/01/21 08:11:59;;;;;;;10.88;2.13;;;;;;;0.58;100.00;103362.38;5092749;28;20540;-49
2022/01/21 08:14:29;;;;;;;6.95;1.65;;;;;;;0.57;100.00;103363.22;5093079;28;20089;-50
2022/01/21 08:16:59;;;;;;;5.72;1.73;;;;;;;0.55;100.00;103358.00;5092893;28;20082;-49
2022/01/21 08:19:27;;;;;;;6.93;1.98;;;;;;;0.55;100.00;103355.44;5092881;28;20499;-47
2022/01/21 08:21:55;;;;;;;8.30;2.00;;;;;;;0.53;100.00;103354.50;5092958;28;20052;-48
2022/01/21 08:24:27;;;;;;;6.50;2.00;;;;;;;0.50;100.00;103352.78;5092670;28;20460;-48
2022/01/21 08:26:55;;;;;;;8.20;2.10;;;;;;;0.59;100.00;103352.03;5092848;28;20426;-48
2022/01/21 08:29:23;;;;;;;7.22;2.20;;;;;;;0.73;100.00;103343.63;5092973;28;20117;-47
2022/01/21 08:31:54;;;;;;;16.58;2.92;;;;;;;0.73;100.00;103343.63;5092586;28;20052;-47
2022/01/21 08:34:22;;;;;;;9.25;2.20;;;;;;;0.89;100.00;103352.53;5093023;28;20352;-48
2022/01/21 08:36:52;;;;;;;8.15;2.20;;;;;;;1.13;100.00;103350.28;5092780;28;20071;-48
2022/01/21 08:39:21;;;;;;;9.60;1.90;;;;;;;1.20;100.00;103348.66;5092968;28;20056;-44
2022/01/21 08:41:49;;;;;;;10.95;1.95;;;;;;;1.10;100.00;103341.59;5091081;28;20054;-48
2022/01/21 08:44:17;;;;;;;12.75;2.70;;;;;;;1.11;100.00;103331.25;5072267;28;20550;-47
2022/01/21 08:46:45;;;;;;;10.15;1.90;;;;;;;1.31;100.00;103328.03;5072174;28;20041;-44
2022/01/21 08:49:35;;;;;;;7.18;1.90;;;;;;;1.51;100.00;103326.59;5072026;28;20059;-44
2022/01/21 08:52:04;;;;;;;7.53;2.53;;;;;;;1.52;100.00;103343.88;5071839;28;20141;-47
2022/01/21 08:54:32;;;;;;;7.72;2.33;;;;;;;1.51;100.00;103336.97;5071731;28;20537;-51
2022/01/21 08:57:00;;;;;;;8.20;2.30;;;;;;;1.64;100.00;103343.16;5072431;28;20135;-47
2022/01/21 08:59:31;;;;;;;10.98;2.15;;;;;;;1.83;100.00;103353.78;5067619;28;20049;-48
2022/01/21 09:01:59;;;;;;;7.18;2.35;;;;;;;1.90;100.00;103349.53;5067233;28;20052;-47
2022/01/21 09:04:28;;;;;;;9.43;1.95;;;;;;;1.90;100.00;103352.13;5073706;28;20033;-49
2022/01/21 09:06:57;;;;;;;11.68;2.53;;;;;;;1.90;100.00;103353.00;5072339;28;20658;-47
2022/01/21 09:09:25;;;;;;;9.00;2.55;;;;;;;1.95;100.00;103358.22;5072166;28;20049;-55
2022/01/21 09:11:59;;;;;;;11.38;2.45;;;;;;;2.01;100.00;103353.09;5078776;28;20036;-48
2022/01/21 09:14:28;;;;;;;9.05;2.20;;;;;;;2.08;100.00;103362.69;5084342;28;20128;-47
2022/01/21 09:16:57;;;;;;;10.48;2.42;;;;;;;2.13;100.00;103367.97;5095093;28;20079;-48
2022/01/21 09:19:26;;;;;;;9.35;3.30;;;;;;;2.20;100.00;103367.16;5096420;28;20047;-49
2022/01/21 09:21:55;;;;;;;8.77;2.58;;;;;;;2.31;100.00;103373.31;5096441;28;20044;-51
2022/01/21 09:24:25;;;;;;;8.73;2.33;;;;;;;2.37;100.00;103367.31;5096206;28;20044;-46
2022/01/21 09:26:53;;;;;;;12.27;2.50;;;;;;;2.56;100.00;103362.28;5079535;28;20041;-48
2022/01/21 09:29:21;;;;;;;11.40;2.30;;;;;;;2.68;100.00;103362.41;5075805;28;20181;-45
2022/01/21 09:31:49;;;;;;;10.80;2.28;;;;;;;2.83;100.00;103367.72;5076046;28;20499;-48
2022/01/21 09:34:26;;;;;;;8.70;2.22;;;;;;;2.94;100.00;103359.13;5075852;28;20033;-47
2022/01/21 09:36:56;;;;;;;11.35;2.58;;;;;;;2.95;100.00;103366.06;5079621;28;20558;-47
2022/01/21 09:39:27;;;;;;;12.20;2.10;;;;;;;3.19;100.00;103360.16;5116129;28;20059;-57
2022/01/21 09:41:59;;;;;;;12.00;2.10;;;;;;;3.43;100.00;103374.16;5111408;28;21243;-57
2022/01/21 09:44:28;;;;;;;10.23;2.45;;;;;;;3.27;100.00;103370.59;5096115;28;20039;-45
2022/01/21 09:46:59;;;;;;;9.07;2.47;;;;;;;3.31;100.00;103368.06;5093145;28;20482;-46
2022/01/21 09:49:28;;;;;;;7.50;2.53;;;;;;;3.28;100.00;103370.59;5076669;28;20044;-57
2022/01/21 09:51:59;;;;;;;9.27;2.08;;;;;;;3.38;100.00;103371.53;5075143;28;20053;-57
2022/01/21 09:54:33;;;;;;;10.77;2.13;;;;;;;3.69;100.00;103366.47;5075338;28;20036;-57
2022/01/21 09:57:03;;;;;;;11.60;2.42;;;;;;;4.14;100.00;103369.22;5076031;28;20060;-46
2022/01/21 09:59:33;;;;;;;11.13;2.28;;;;;;;3.97;100.00;103371.81;5078941;28;20059;-49
2022/01/21 10:02:05;;;;;;;9.13;2.90;;;;;;;4.01;100.00;103374.41;5094875;28;20370;-57
2022/01/21 10:04:36;;;;;;;13.15;2.88;;;;;;;4.39;100.00;103373.63;5082648;28;20041;-57
2022/01/21 10:07:06;;;;;;;11.02;2.60;;;;;;;4.69;100.00;103382.31;5075814;28;20409;-57
2022/01/21 10:09:35;;;;;;;8.13;2.30;;;;;;;4.96;100.00;103380.56;5075225;28;20398;-57
2022/01/21 10:12:04;;;;;;;9.95;2.33;;;;;;;5.11;100.00;103376.19;5074921;28;20048;-45
2022/01/21 10:14:32;;;;;;;9.23;2.30;;;;;;;5.53;99.48;103383.03;5074841;28;20494;-46
2022/01/21 10:17:00;;;;;;;8.52;2.20;;;;;;;5.93;99.12;103382.00;5074905;28;20048;-57
2022/01/21 10:19:31;;;;;;;8.85;2.03;;;;;;;6.17;95.40;103385.41;5074786;28;20052;-58
2022/01/21 10:22:01;;;;;;;9.52;2.50;;;;;;;6.34;94.68;103390.50;5074600;28;20045;-57
2022/01/21 10:24:30;;;;;;;12.00;2.53;;;;;;;6.62;92.53;103393.78;5074813;28;20104;-47
2022/01/21 10:27:00;;;;;;;11.25;2.30;;;;;;;6.62;92.12;103385.09;5073746;28;20055;-57
2022/01/21 10:29:37;;;;;;;9.88;3.03;;;;;;;6.83;92.10;103384.03;5074673;28;20047;-57
2022/01/21 10:32:07;;;;;;;10.95;2.53;;;;;;;6.65;91.07;103375.47;5078496;28;20051;-48
2022/01/21 10:34:40;;;;;;;10.40;2.47;;;;;;;7.02;92.06;103379.50;5074899;28;20110;-44
2022/01/21 10:37:25;;;;;;;12.82;2.78;;;;;;;6.62;90.98;103379.88;5074823;28;20052;-44
2022/01/21 10:39:58;;;;;;;6.90;2.22;;;;;;;6.37;92.09;103385.28;5074549;28;20478;-45
2022/01/21 10:42:28;;;;;;;9.88;2.70;;;;;;;6.16;92.96;103379.31;5073353;28;20060;-44
2022/01/21 10:44:57;;;;;;;8.68;2.15;;;;;;;6.29;93.28;103369.66;5074730;28;20054;-57
2022/01/21 10:47:27;;;;;;;9.13;2.45;;;;;;;6.28;93.85;103375.75;5074604;28;20050;-57
2022/01/21 10:50:01;;;;;;;9.95;2.50;;;;;;;6.50;92.36;103359.91;5074291;28;20434;-48
2022/01/21 10:52:35;;;;;;;10.95;2.47;;;;;;;6.53;92.85;103362.47;5074220;28;20071;-50
2022/01/21 10:55:06;;;;;;;9.85;2.55;;;;;;;6.21;94.41;103355.75;5074339;28;20052;-51
2022/01/21 10:57:36;;;;;;;10.98;2.33;;;;;;;6.25;96.04;103352.25;5074459;28;20379;-58
2022/01/21 11:00:09;;;;;;;9.82;3.05;;;;;;;6.37;97.66;103351.31;5073841;28;20045;-56
2022/01/21 11:02:42;;;;;;;6.88;2.03;;;;;;;6.04;97.05;103355.84;5072181;28;20049;-57
2022/01/21 11:05:15;;;;;;;10.63;2.22;;;;;;;6.13;98.28;103354.94;5074341;28;20106;-57
2022/01/21 11:07:54;;;;;;;9.30;2.40;;;;;;;6.07;100.00;103353.25;5074137;28;20456;-47
2022/01/21 11:10:37;;;;;;;9.75;2.22;;;;;;;6.03;98.28;103351.53;5074112;28;20052;-45
2022/01/21 11:13:29;;;;;;;16.27;3.50;;;;;;;5.92;99.29;103347.19;5073982;28;20058;-48
2022/01/21 11:15:59;;;;;;;11.93;2.42;;;;;;;6.07;99.17;103350.63;5073797;28;20052;-47
2022/01/21 11:18:54;;;;;;;11.65;2.55;;;;;;;5.82;100.00;103349.84;5073882;28;20402;-50
2022/01/21 11:21:23;;;;;;;8.63;2.17;;;;;;;5.72;100.00;103343.81;5074061;28;20106;-48
2022/01/21 11:24:04;;;;;;;10.02;1.88;;;;;;;5.73;100.00;103345.56;5073630;28;20044;-47
2022/01/21 11:26:32;;;;;;;9.82;2.03;;;;;;;5.74;100.00;103348.16;5073721;28;20051;-45
2022/01/21 11:29:02;;;;;;;15.88;2.67;;;;;;;5.78;100.00;103351.63;5073732;28;20079;-48
2022/01/21 11:31:31;;;;;;;15.38;2.42;;;;;;;5.59;100.00;103341.25;5073821;28;20048;-49
2022/01/21 11:34:10;;;;;;;8.65;1.90;;;;;;;5.63;100.00;103349.06;5073793;28;20056;-56
2022/01/21 11:36:38;;;;;;;14.45;2.53;;;;;;;5.66;100.00;103346.44;5073701;28;20382;-57
2022/01/21 11:39:06;;;;;;;17.13;2.75;;;;;;;5.63;100.00;103344.75;5073277;28;20436;-58
2022/01/21 11:41:36;;;;;;;13.38;2.67;;;;;;;5.74;100.00;103347.31;5073124;28;20045;-45
2022/01/21 11:44:07;;;;;;;16.52;2.50;;;;;;;5.77;100.00;103347.28;5072961;28;20092;-47
2022/01/21 11:46:48;;;;;;;8.73;2.42;;;;;;;5.72;100.00;103333.38;5073687;28;20147;-57
2022/01/21 11:49:19;;;;;;;14.35;3.30;;;;;;;5.85;100.00;103344.59;5072713;28;20055;-49
2022/01/21 11:51:48;;;;;;;12.85;2.90;;;;;;;5.83;100.00;103339.38;5072653;28;20057;-46
2022/01/21 11:54:18;;;;;;;10.18;2.25;;;;;;;5.85;100.00;103336.75;5071846;28;20352;-46
2022/01/21 11:56:47;;;;;;;18.20;2.97;;;;;;;5.79;100.00;103331.59;5072953;28;20044;-45
2022/01/21 11:59:30;;;;;;;13.15;2.63;;;;;;;5.75;100.00;103323.78;5073121;28;20049;-45
2022/01/21 12:01:59;;;;;;;10.82;2.33;;;;;;;5.71;100.00;103321.19;5073009;28;20056;-57
2022/01/21 12:04:47;;;;;;;10.25;2.58;;;;;;;5.77;100.00;103326.38;5072994;28;20045;-57
2022/01/21 12:07:54;;;;;;;14.07;2.53;;;;;;;5.76;100.00;103314.19;5073047;28;20425;-46